sensor_id;sensor_type;location;lat;lon;timestamp;P1;P2;P0
66195;PMS7003;53000;45.182;5.736;2023-09-30T00:01:49;6.75;6.75;5.50
66195;PMS7003;53000;45.182;5.736;2023-09-30T00:04:17;6.00;5.25;5.00
66195;PMS7003;53000;45.182;5.736;2023-09-30T00:06:42;6.50;5.75;5.00
66195;PMS7003;53000;45.182;5.736;2023-09-30T00:09:08;5.00;5.00;4.00
66195;PMS7003;53000;45.182;5.736;2023-09-30T00:11:33;7.50;6.50;6.00
66195;PMS7003;53000;45.182;5.736;2023-09-30T00:13:59;7.00;6.25;6.00
66195;PMS7003;53000;45.182;5.736;2023-09-30T00:16:25;6.75;6.75;6.25
66195;PMS7003;53000;45.182;5.736;2023-09-30T00:18:50;6.00;6.00;5.75
66195;PMS7003;53000;45.182;5.736;2023-09-30T00:21:16;8.00;7.00;6.00
66195;PMS7003;53000;45.182;5.736;2023-09-30T00:23:41;5.50;5.50;5.00
66195;PMS7003;53000;45.182;5.736;2023-09-30T00:26:06;5.50;5.50;5.00
66195;PMS7003;53000;45.182;5.736;2023-09-30T00:28:31;4.25;3.50;3.00
66195;PMS7003;53000;45.182;5.736;2023-09-30T00:30:57;6.75;6.00;5.00
66195;PMS7003;53000;45.182;5.736;2023-09-30T00:33:23;7.25;5.50;4.75
66195;PMS7003;53000;45.182;5.736;2023-09-30T00:35:48;9.00;8.00;5.00
66195;PMS7003;53000;45.182;5.736;2023-09-30T00:38:13;6.75;5.25;4.00
66195;PMS7003;53000;45.182;5.736;2023-09-30T00:40:40;5.00;5.00;4.00
66195;PMS7003;53000;45.182;5.736;2023-09-30T00:43:17;5.67;5.00;3.33
66195;PMS7003;53000;45.182;5.736;2023-09-30T00:45:43;6.00;6.00;5.00
66195;PMS7003;53000;45.182;5.736;2023-09-30T00:48:09;7.00;5.75;4.75
66195;PMS7003;53000;45.182;5.736;2023-09-30T00:50:34;11.25;8.00;5.00
66195;PMS7003;53000;45.182;5.736;2023-09-30T00:53:00;6.75;6.25;3.75
66195;PMS7003;53000;45.182;5.736;2023-09-30T00:55:25;7.00;7.00;5.00
66195;PMS7003;53000;45.182;5.736;2023-09-30T00:57:51;7.75;5.50;4.50
66195;PMS7003;53000;45.182;5.736;2023-09-30T01:00:16;6.00;6.00;4.50
66195;PMS7003;53000;45.182;5.736;2023-09-30T01:02:42;6.25;5.50;4.75
66195;PMS7003;53000;45.182;5.736;2023-09-30T01:05:09;7.75;6.25;5.25
66195;PMS7003;53000;45.182;5.736;2023-09-30T01:07:34;6.75;6.75;5.00
66195;PMS7003;53000;45.182;5.736;2023-09-30T01:10:00;6.00;5.75;4.75
66195;PMS7003;53000;45.182;5.736;2023-09-30T01:12:26;7.50;6.75;5.25
66195;PMS7003;53000;45.182;5.736;2023-09-30T01:14:56;6.67;5.00;5.00
66195;PMS7003;53000;45.182;5.736;2023-09-30T01:17:23;6.00;5.00;4.00
66195;PMS7003;53000;45.182;5.736;2023-09-30T01:19:48;6.67;5.00;4.33
66195;PMS7003;53000;45.182;5.736;2023-09-30T01:22:14;5.25;4.75;4.00
66195;PMS7003;53000;45.182;5.736;2023-09-30T01:24:41;8.50;7.00;5.00
66195;PMS7003;53000;45.182;5.736;2023-09-30T01:27:08;6.00;5.00;5.00
66195;PMS7003;53000;45.182;5.736;2023-09-30T01:29:33;8.67;6.33;4.67
66195;PMS7003;53000;45.182;5.736;2023-09-30T01:31:59;6.00;5.33;4.00
66195;PMS7003;53000;45.182;5.736;2023-09-30T01:34:26;6.25;6.25;4.75
66195;PMS7003;53000;45.182;5.736;2023-09-30T01:36:52;5.67;5.00;4.00
66195;PMS7003;53000;45.182;5.736;2023-09-30T01:39:18;7.00;5.33;4.33
66195;PMS7003;53000;45.182;5.736;2023-09-30T01:41:43;8.00;7.00;5.75
66195;PMS7003;53000;45.182;5.736;2023-09-30T01:44:09;6.33;5.00;3.67
66195;PMS7003;53000;45.182;5.736;2023-09-30T01:46:34;5.00;5.00;3.75
66195;PMS7003;53000;45.182;5.736;2023-09-30T01:48:59;6.00;5.67;3.67
66195;PMS7003;53000;45.182;5.736;2023-09-30T01:51:25;7.00;6.00;4.50
66195;PMS7003;53000;45.182;5.736;2023-09-30T01:53:50;6.50;6.50;5.00
66195;PMS7003;53000;45.182;5.736;2023-09-30T01:56:16;8.00;4.75;3.50
66195;PMS7003;53000;45.182;5.736;2023-09-30T01:58:41;7.67;6.00;4.00
66195;PMS7003;53000;45.182;5.736;2023-09-30T02:01:06;10.00;6.75;5.00
66195;PMS7003;53000;45.182;5.736;2023-09-30T02:03:32;7.00;7.00;4.33
66195;PMS7003;53000;45.182;5.736;2023-09-30T02:05:57;9.67;7.00;5.00
66195;PMS7003;53000;45.182;5.736;2023-09-30T02:08:23;6.67;6.00;5.00
66195;PMS7003;53000;45.182;5.736;2023-09-30T02:10:49;7.00;7.00;5.00
66195;PMS7003;53000;45.182;5.736;2023-09-30T02:13:16;9.33;7.00;5.33
66195;PMS7003;53000;45.182;5.736;2023-09-30T02:15:41;6.33;5.00;3.00
66195;PMS7003;53000;45.182;5.736;2023-09-30T02:18:06;8.67;5.33;4.00
66195;PMS7003;53000;45.182;5.736;2023-09-30T02:20:32;8.33;6.00;5.00
66195;PMS7003;53000;45.182;5.736;2023-09-30T02:22:57;10.00;5.33;4.00
66195;PMS7003;53000;45.182;5.736;2023-09-30T02:25:24;9.00;6.00;5.00
66195;PMS7003;53000;45.182;5.736;2023-09-30T02:27:49;5.00;5.00;4.00
66195;PMS7003;53000;45.182;5.736;2023-09-30T02:30:15;6.67;6.00;4.33
66195;PMS7003;53000;45.182;5.736;2023-09-30T02:32:41;5.00;5.00;4.00
66195;PMS7003;53000;45.182;5.736;2023-09-30T02:35:07;6.33;6.33;5.33
66195;PMS7003;53000;45.182;5.736;2023-09-30T02:37:33;6.00;6.00;5.00
66195;PMS7003;53000;45.182;5.736;2023-09-30T02:40:04;7.33;7.00;5.33
66195;PMS7003;53000;45.182;5.736;2023-09-30T02:42:34;6.33;6.33;5.33
66195;PMS7003;53000;45.182;5.736;2023-09-30T02:45:01;7.33;6.33;4.00
66195;PMS7003;53000;45.182;5.736;2023-09-30T02:47:27;6.67;5.00;4.67
66195;PMS7003;53000;45.182;5.736;2023-09-30T02:49:53;6.00;6.00;5.00
66195;PMS7003;53000;45.182;5.736;2023-09-30T02:52:19;6.00;6.00;5.00
66195;PMS7003;53000;45.182;5.736;2023-09-30T02:54:46;8.00;6.33;5.00
66195;PMS7003;53000;45.182;5.736;2023-09-30T02:57:11;8.00;7.00;5.00
66195;PMS7003;53000;45.182;5.736;2023-09-30T02:59:36;7.00;5.00;4.67
66195;PMS7003;53000;45.182;5.736;2023-09-30T03:02:02;6.33;6.33;5.00
66195;PMS7003;53000;45.182;5.736;2023-09-30T03:04:28;6.00;6.00;4.67
66195;PMS7003;53000;45.182;5.736;2023-09-30T03:06:53;7.00;5.33;4.00
66195;PMS7003;53000;45.182;5.736;2023-09-30T03:09:21;5.00;5.00;4.33
66195;PMS7003;53000;45.182;5.736;2023-09-30T03:11:47;8.67;5.00;4.00
66195;PMS7003;53000;45.182;5.736;2023-09-30T03:14:12;6.00;6.00;5.00
66195;PMS7003;53000;45.182;5.736;2023-09-30T03:16:38;7.67;5.00;3.33
66195;PMS7003;53000;45.182;5.736;2023-09-30T03:19:05;5.67;4.00;4.00
66195;PMS7003;53000;45.182;5.736;2023-09-30T03:21:34;3.67;3.00;3.00
66195;PMS7003;53000;45.182;5.736;2023-09-30T03:24:03;4.67;4.67;4.00
66195;PMS7003;53000;45.182;5.736;2023-09-30T03:26:29;6.67;5.67;4.33
66195;PMS7003;53000;45.182;5.736;2023-09-30T03:28:55;6.33;4.00;3.33
66195;PMS7003;53000;45.182;5.736;2023-09-30T03:31:20;9.00;6.33;5.00
66195;PMS7003;53000;45.182;5.736;2023-09-30T03:33:47;4.67;4.33;4.00
66195;PMS7003;53000;45.182;5.736;2023-09-30T03:36:13;10.00;6.67;5.67
66195;PMS7003;53000;45.182;5.736;2023-09-30T03:38:39;5.33;5.33;4.33
66195;PMS7003;53000;45.182;5.736;2023-09-30T03:41:06;5.00;5.00;4.25
66195;PMS7003;53000;45.182;5.736;2023-09-30T03:43:33;6.00;6.00;5.00
66195;PMS7003;53000;45.182;5.736;2023-09-30T03:46:00;11.75;4.25;4.00
66195;PMS7003;53000;45.182;5.736;2023-09-30T03:48:26;5.00;5.00;4.00
66195;PMS7003;53000;45.182;5.736;2023-09-30T03:50:51;7.00;6.00;5.00
66195;PMS7003;53000;45.182;5.736;2023-09-30T03:53:17;7.00;5.00;4.00
66195;PMS7003;53000;45.182;5.736;2023-09-30T03:55:43;5.00;4.67;3.33
66195;PMS7003;53000;45.182;5.736;2023-09-30T03:58:08;7.00;6.33;4.33
66195;PMS7003;53000;45.182;5.736;2023-09-30T04:00:33;6.00;5.33;4.00
66195;PMS7003;53000;45.182;5.736;2023-09-30T04:03:00;9.00;6.00;5.33
66195;PMS7003;53000;45.182;5.736;2023-09-30T04:05:26;5.33;4.67;3.00
66195;PMS7003;53000;45.182;5.736;2023-09-30T04:07:57;5.00;5.00;4.00
66195;PMS7003;53000;45.182;5.736;2023-09-30T04:10:23;5.33;5.33;5.00
66195;PMS7003;53000;45.182;5.736;2023-09-30T04:12:48;5.00;4.00;3.00
66195;PMS7003;53000;45.182;5.736;2023-09-30T04:15:14;7.33;7.00;5.33
66195;PMS7003;53000;45.182;5.736;2023-09-30T04:17:40;6.00;5.00;4.00
66195;PMS7003;53000;45.182;5.736;2023-09-30T04:20:06;8.00;7.00;6.00
66195;PMS7003;53000;45.182;5.736;2023-09-30T04:22:40;6.67;6.67;4.67
66195;PMS7003;53000;45.182;5.736;2023-09-30T04:25:06;11.50;11.25;9.00
66195;PMS7003;53000;45.182;5.736;2023-09-30T04:27:35;12.00;8.50;7.00
66195;PMS7003;53000;45.182;5.736;2023-09-30T04:30:01;13.33;9.33;6.00
66195;PMS7003;53000;45.182;5.736;2023-09-30T04:32:33;7.00;7.00;5.67
66195;PMS7003;53000;45.182;5.736;2023-09-30T04:34:59;9.00;8.00;5.33
66195;PMS7003;53000;45.182;5.736;2023-09-30T04:37:25;6.67;6.00;5.00
66195;PMS7003;53000;45.182;5.736;2023-09-30T04:39:50;9.00;7.67;6.00
66195;PMS7003;53000;45.182;5.736;2023-09-30T04:42:15;6.00;6.00;5.00
66195;PMS7003;53000;45.182;5.736;2023-09-30T04:44:42;7.00;6.00;5.00
66195;PMS7003;53000;45.182;5.736;2023-09-30T04:47:08;7.67;7.00;6.00
66195;PMS7003;53000;45.182;5.736;2023-09-30T04:49:34;7.00;7.00;6.00
66195;PMS7003;53000;45.182;5.736;2023-09-30T04:52:00;8.00;8.00;6.67
66195;PMS7003;53000;45.182;5.736;2023-09-30T04:54:26;7.67;7.67;6.33
66195;PMS7003;53000;45.182;5.736;2023-09-30T04:56:51;7.00;6.00;5.00
66195;PMS7003;53000;45.182;5.736;2023-09-30T04:59:16;9.25;8.25;7.75
66195;PMS7003;53000;45.182;5.736;2023-09-30T05:01:41;9.33;8.00;6.00
66195;PMS7003;53000;45.182;5.736;2023-09-30T05:04:07;8.00;6.50;4.00
66195;PMS7003;53000;45.182;5.736;2023-09-30T05:06:32;8.67;7.00;6.33
66195;PMS7003;53000;45.182;5.736;2023-09-30T05:08:58;8.67;7.00;4.67
66195;PMS7003;53000;45.182;5.736;2023-09-30T05:11:24;12.00;10.25;7.00
66195;PMS7003;53000;45.182;5.736;2023-09-30T05:13:49;8.25;6.25;4.00
66195;PMS7003;53000;45.182;5.736;2023-09-30T05:16:14;11.50;11.00;7.00
66195;PMS7003;53000;45.182;5.736;2023-09-30T05:18:41;11.00;11.00;7.25
66195;PMS7003;53000;45.182;5.736;2023-09-30T05:21:06;12.00;10.50;7.00
66195;PMS7003;53000;45.182;5.736;2023-09-30T05:23:32;9.00;9.00;7.33
66195;PMS7003;53000;45.182;5.736;2023-09-30T05:25:57;8.00;6.00;4.00
66195;PMS7003;53000;45.182;5.736;2023-09-30T05:28:23;9.00;8.00;6.00
66195;PMS7003;53000;45.182;5.736;2023-09-30T05:30:48;8.67;6.00;5.00
66195;PMS7003;53000;45.182;5.736;2023-09-30T05:33:15;6.75;6.75;5.25
66195;PMS7003;53000;45.182;5.736;2023-09-30T05:35:41;8.00;7.00;6.50
66195;PMS7003;53000;45.182;5.736;2023-09-30T05:38:07;8.67;8.00;6.00
66195;PMS7003;53000;45.182;5.736;2023-09-30T05:40:33;9.00;8.00;6.33
66195;PMS7003;53000;45.182;5.736;2023-09-30T05:42:59;8.67;8.67;7.00
66195;PMS7003;53000;45.182;5.736;2023-09-30T05:45:25;11.33;9.67;6.67
66195;PMS7003;53000;45.182;5.736;2023-09-30T05:47:51;9.75;9.00;8.00
66195;PMS7003;53000;45.182;5.736;2023-09-30T05:50:18;7.33;6.67;5.67
66195;PMS7003;53000;45.182;5.736;2023-09-30T05:52:49;11.75;11.00;8.25
66195;PMS7003;53000;45.182;5.736;2023-09-30T05:55:16;11.00;9.00;7.00
66195;PMS7003;53000;45.182;5.736;2023-09-30T05:57:44;11.00;10.00;8.00
66195;PMS7003;53000;45.182;5.736;2023-09-30T06:00:11;11.00;10.00;8.50
66195;PMS7003;53000;45.182;5.736;2023-09-30T06:02:40;12.50;10.50;8.75
66195;PMS7003;53000;45.182;5.736;2023-09-30T06:05:05;11.00;9.75;7.50
66195;PMS7003;53000;45.182;5.736;2023-09-30T06:07:31;8.00;8.00;6.00
66195;PMS7003;53000;45.182;5.736;2023-09-30T06:09:58;12.50;12.00;9.00
66195;PMS7003;53000;45.182;5.736;2023-09-30T06:12:24;8.50;8.50;7.00
66195;PMS7003;53000;45.182;5.736;2023-09-30T06:14:49;8.25;7.00;6.25
66195;PMS7003;53000;45.182;5.736;2023-09-30T06:17:16;9.00;7.25;6.00
66195;PMS7003;53000;45.182;5.736;2023-09-30T06:19:41;8.75;8.75;7.50
66195;PMS7003;53000;45.182;5.736;2023-09-30T06:22:07;13.75;11.00;9.00
66195;PMS7003;53000;45.182;5.736;2023-09-30T06:24:32;10.25;8.00;7.00
66195;PMS7003;53000;45.182;5.736;2023-09-30T06:26:57;6.75;6.25;5.50
66195;PMS7003;53000;45.182;5.736;2023-09-30T06:29:23;8.00;8.00;7.00
66195;PMS7003;53000;45.182;5.736;2023-09-30T06:31:48;7.75;7.75;6.25
66195;PMS7003;53000;45.182;5.736;2023-09-30T06:34:13;9.33;7.33;6.00
66195;PMS7003;53000;45.182;5.736;2023-09-30T06:36:39;8.67;8.00;6.00
66195;PMS7003;53000;45.182;5.736;2023-09-30T06:39:05;9.00;9.00;7.25
66195;PMS7003;53000;45.182;5.736;2023-09-30T06:41:31;9.75;9.75;8.00
66195;PMS7003;53000;45.182;5.736;2023-09-30T06:43:56;11.25;10.25;7.75
66195;PMS7003;53000;45.182;5.736;2023-09-30T06:46:22;9.75;8.00;7.00
66195;PMS7003;53000;45.182;5.736;2023-09-30T06:48:49;9.25;9.25;8.25
66195;PMS7003;53000;45.182;5.736;2023-09-30T06:51:16;7.75;7.00;5.25
66195;PMS7003;53000;45.182;5.736;2023-09-30T06:53:42;9.75;7.00;6.00
66195;PMS7003;53000;45.182;5.736;2023-09-30T06:56:07;15.75;13.50;7.50
66195;PMS7003;53000;45.182;5.736;2023-09-30T06:58:33;10.67;9.00;7.00
66195;PMS7003;53000;45.182;5.736;2023-09-30T07:00:58;8.67;8.67;7.00
66195;PMS7003;53000;45.182;5.736;2023-09-30T07:03:23;10.50;8.25;7.00
66195;PMS7003;53000;45.182;5.736;2023-09-30T07:05:49;9.50;7.50;7.00
66195;PMS7003;53000;45.182;5.736;2023-09-30T07:08:18;9.00;8.00;6.25
66195;PMS7003;53000;45.182;5.736;2023-09-30T07:10:43;9.50;8.75;7.50
66195;PMS7003;53000;45.182;5.736;2023-09-30T07:13:11;7.00;7.00;5.00
66195;PMS7003;53000;45.182;5.736;2023-09-30T07:15:36;10.00;8.67;7.00
66195;PMS7003;53000;45.182;5.736;2023-09-30T07:18:02;9.33;8.00;6.00
66195;PMS7003;53000;45.182;5.736;2023-09-30T07:20:27;8.50;7.50;6.25
66195;PMS7003;53000;45.182;5.736;2023-09-30T07:22:54;10.00;8.00;6.75
66195;PMS7003;53000;45.182;5.736;2023-09-30T07:25:19;6.00;5.33;4.33
66195;PMS7003;53000;45.182;5.736;2023-09-30T07:27:44;10.00;8.33;5.33
66195;PMS7003;53000;45.182;5.736;2023-09-30T07:30:10;10.00;8.00;6.00
66195;PMS7003;53000;45.182;5.736;2023-09-30T07:32:40;8.00;7.33;5.67
66195;PMS7003;53000;45.182;5.736;2023-09-30T07:35:06;9.00;8.00;6.67
66195;PMS7003;53000;45.182;5.736;2023-09-30T07:37:33;10.67;7.00;5.00
66195;PMS7003;53000;45.182;5.736;2023-09-30T07:39:58;7.67;5.33;5.00
66195;PMS7003;53000;45.182;5.736;2023-09-30T07:42:24;6.67;6.67;5.00
66195;PMS7003;53000;45.182;5.736;2023-09-30T07:44:49;9.00;8.00;6.00
66195;PMS7003;53000;45.182;5.736;2023-09-30T07:47:15;6.00;6.00;4.33
66195;PMS7003;53000;45.182;5.736;2023-09-30T07:49:40;6.67;6.33;5.00
66195;PMS7003;53000;45.182;5.736;2023-09-30T07:52:05;6.33;6.00;5.00
66195;PMS7003;53000;45.182;5.736;2023-09-30T07:54:31;6.33;6.33;5.00
66195;PMS7003;53000;45.182;5.736;2023-09-30T07:56:57;7.50;7.50;6.00
66195;PMS7003;53000;45.182;5.736;2023-09-30T07:59:23;9.00;8.25;6.00
66195;PMS7003;53000;45.182;5.736;2023-09-30T08:01:49;7.00;5.67;5.00
66195;PMS7003;53000;45.182;5.736;2023-09-30T08:04:14;8.00;7.67;6.00
66195;PMS7003;53000;45.182;5.736;2023-09-30T08:06:40;10.00;7.25;6.00
66195;PMS7003;53000;45.182;5.736;2023-09-30T08:09:05;9.00;6.00;6.00
66195;PMS7003;53000;45.182;5.736;2023-09-30T08:11:36;8.75;8.25;5.75
66195;PMS7003;53000;45.182;5.736;2023-09-30T08:14:02;10.50;8.00;6.00
66195;PMS7003;53000;45.182;5.736;2023-09-30T08:16:31;11.00;8.25;5.00
66195;PMS7003;53000;45.182;5.736;2023-09-30T08:19:00;8.00;6.00;5.00
66195;PMS7003;53000;45.182;5.736;2023-09-30T08:21:25;8.75;6.50;5.25
66195;PMS7003;53000;45.182;5.736;2023-09-30T08:23:50;9.67;8.00;6.33
66195;PMS7003;53000;45.182;5.736;2023-09-30T08:26:17;8.00;7.00;5.33
66195;PMS7003;53000;45.182;5.736;2023-09-30T08:28:42;8.67;7.67;7.00
66195;PMS7003;53000;45.182;5.736;2023-09-30T08:31:08;8.00;7.00;6.00
66195;PMS7003;53000;45.182;5.736;2023-09-30T08:33:34;10.50;8.50;5.25
66195;PMS7003;53000;45.182;5.736;2023-09-30T08:36:04;9.00;7.67;5.00
66195;PMS7003;53000;45.182;5.736;2023-09-30T08:38:33;12.00;9.00;7.00
66195;PMS7003;53000;45.182;5.736;2023-09-30T08:41:01;8.25;7.00;5.75
66195;PMS7003;53000;45.182;5.736;2023-09-30T08:43:27;8.75;5.75;5.00
66195;PMS7003;53000;45.182;5.736;2023-09-30T08:45:55;10.00;8.75;8.00
66195;PMS7003;53000;45.182;5.736;2023-09-30T08:48:21;11.75;9.50;7.50
66195;PMS7003;53000;45.182;5.736;2023-09-30T08:50:48;10.25;9.25;6.50
66195;PMS7003;53000;45.182;5.736;2023-09-30T08:53:16;10.50;8.75;6.50
66195;PMS7003;53000;45.182;5.736;2023-09-30T08:55:42;9.50;9.00;7.00
66195;PMS7003;53000;45.182;5.736;2023-09-30T08:58:09;8.00;8.00;6.50
66195;PMS7003;53000;45.182;5.736;2023-09-30T09:00:36;12.00;10.75;7.00
66195;PMS7003;53000;45.182;5.736;2023-09-30T09:03:03;10.00;9.25;8.00
66195;PMS7003;53000;45.182;5.736;2023-09-30T09:05:30;10.25;8.75;7.00
66195;PMS7003;53000;45.182;5.736;2023-09-30T09:07:56;11.33;9.33;7.00
66195;PMS7003;53000;45.182;5.736;2023-09-30T09:10:21;11.00;9.75;7.50
66195;PMS7003;53000;45.182;5.736;2023-09-30T09:12:54;12.00;9.67;7.00
66195;PMS7003;53000;45.182;5.736;2023-09-30T09:15:23;9.67;9.33;7.33
66195;PMS7003;53000;45.182;5.736;2023-09-30T09:17:50;12.75;8.25;6.25
66195;PMS7003;53000;45.182;5.736;2023-09-30T09:20:17;9.00;7.67;5.33
66195;PMS7003;53000;45.182;5.736;2023-09-30T09:22:47;11.25;10.75;6.75
66195;PMS7003;53000;45.182;5.736;2023-09-30T09:25:19;9.00;7.00;6.00
66195;PMS7003;53000;45.182;5.736;2023-09-30T09:27:47;6.33;6.33;5.33
66195;PMS7003;53000;45.182;5.736;2023-09-30T09:30:23;7.33;6.00;4.00
66195;PMS7003;53000;45.182;5.736;2023-09-30T09:35:24;10.00;8.00;5.00
66195;PMS7003;53000;45.182;5.736;2023-09-30T09:38:07;11.25;7.50;6.00
66195;PMS7003;53000;45.182;5.736;2023-09-30T09:40:33;8.50;7.00;5.00
66195;PMS7003;53000;45.182;5.736;2023-09-30T09:43:00;9.25;7.75;6.00
66195;PMS7003;53000;45.182;5.736;2023-09-30T09:45:30;8.75;8.25;6.00
66195;PMS7003;53000;45.182;5.736;2023-09-30T09:47:58;8.50;8.50;6.00
66195;PMS7003;53000;45.182;5.736;2023-09-30T09:50:23;9.25;7.50;5.50
66195;PMS7003;53000;45.182;5.736;2023-09-30T09:52:49;8.50;6.25;4.50
66195;PMS7003;53000;45.182;5.736;2023-09-30T09:55:20;11.50;7.50;6.00
66195;PMS7003;53000;45.182;5.736;2023-09-30T09:57:48;8.75;5.75;4.25
66195;PMS7003;53000;45.182;5.736;2023-09-30T10:00:18;8.25;5.75;4.25
66195;PMS7003;53000;45.182;5.736;2023-09-30T10:02:45;7.00;6.00;4.00
66195;PMS7003;53000;45.182;5.736;2023-09-30T10:05:12;5.50;4.00;3.00
66195;PMS7003;53000;45.182;5.736;2023-09-30T10:07:54;7.50;7.50;4.25
66195;PMS7003;53000;45.182;5.736;2023-09-30T10:10:22;5.75;5.00;4.00
66195;PMS7003;53000;45.182;5.736;2023-09-30T10:12:49;5.25;4.25;3.00
66195;PMS7003;53000;45.182;5.736;2023-09-30T10:17:59;5.75;5.75;4.00
66195;PMS7003;53000;45.182;5.736;2023-09-30T10:20:31;7.50;5.75;4.00
66195;PMS7003;53000;45.182;5.736;2023-09-30T10:25:42;5.50;4.50;3.75
66195;PMS7003;53000;45.182;5.736;2023-09-30T10:31:13;7.25;3.25;3.00
66195;PMS7003;53000;45.182;5.736;2023-09-30T10:36:34;5.00;4.00;3.00
66195;PMS7003;53000;45.182;5.736;2023-09-30T10:39:03;4.75;4.00;3.00
66195;PMS7003;53000;45.182;5.736;2023-09-30T10:46:47;4.50;3.50;2.50
66195;PMS7003;53000;45.182;5.736;2023-09-30T10:49:16;4.00;3.00;2.00
66195;PMS7003;53000;45.182;5.736;2023-09-30T10:51:49;3.50;2.25;1.75
66195;PMS7003;53000;45.182;5.736;2023-09-30T10:54:21;3.75;3.75;2.25
66195;PMS7003;53000;45.182;5.736;2023-09-30T10:56:48;7.25;4.00;3.00
66195;PMS7003;53000;45.182;5.736;2023-09-30T10:59:21;4.00;3.75;3.00
66195;PMS7003;53000;45.182;5.736;2023-09-30T11:01:48;3.75;3.50;2.50
66195;PMS7003;53000;45.182;5.736;2023-09-30T11:04:14;4.00;3.25;2.75
66195;PMS7003;53000;45.182;5.736;2023-09-30T11:06:40;4.00;4.00;2.00
66195;PMS7003;53000;45.182;5.736;2023-09-30T11:09:07;4.00;2.25;2.00
66195;PMS7003;53000;45.182;5.736;2023-09-30T11:11:39;3.50;2.75;1.75
66195;PMS7003;53000;45.182;5.736;2023-09-30T11:16:49;3.00;2.50;1.50
66195;PMS7003;53000;45.182;5.736;2023-09-30T11:19:16;4.50;3.00;2.00
66195;PMS7003;53000;45.182;5.736;2023-09-30T11:21:42;4.00;3.00;2.00
66195;PMS7003;53000;45.182;5.736;2023-09-30T11:24:11;3.00;3.00;2.00
66195;PMS7003;53000;45.182;5.736;2023-09-30T11:26:37;5.00;3.75;3.00
66195;PMS7003;53000;45.182;5.736;2023-09-30T11:29:06;3.75;3.25;2.50
66195;PMS7003;53000;45.182;5.736;2023-09-30T11:31:39;4.00;3.75;3.50
66195;PMS7003;53000;45.182;5.736;2023-09-30T11:34:06;3.50;2.50;2.00
66195;PMS7003;53000;45.182;5.736;2023-09-30T11:36:36;2.25;2.00;1.00
66195;PMS7003;53000;45.182;5.736;2023-09-30T11:39:03;2.00;1.75;1.25
66195;PMS7003;53000;45.182;5.736;2023-09-30T11:41:36;1.25;1.25;1.25
66195;PMS7003;53000;45.182;5.736;2023-09-30T11:44:12;1.75;1.75;1.00
66195;PMS7003;53000;45.182;5.736;2023-09-30T11:46:49;2.25;1.25;1.00
66195;PMS7003;53000;45.182;5.736;2023-09-30T11:49:29;2.75;2.00;1.00
66195;PMS7003;53000;45.182;5.736;2023-09-30T11:51:57;1.00;1.00;0.75
66195;PMS7003;53000;45.182;5.736;2023-09-30T11:54:31;1.25;1.00;0.75
66195;PMS7003;53000;45.182;5.736;2023-09-30T11:57:02;1.75;1.00;0.75
66195;PMS7003;53000;45.182;5.736;2023-09-30T11:59:28;3.00;1.00;0.00
66195;PMS7003;53000;45.182;5.736;2023-09-30T12:01:54;2.00;2.00;1.25
66195;PMS7003;53000;45.182;5.736;2023-09-30T12:04:20;1.25;1.25;0.50
66195;PMS7003;53000;45.182;5.736;2023-09-30T12:06:46;1.50;1.50;1.00
66195;PMS7003;53000;45.182;5.736;2023-09-30T12:09:13;2.00;2.00;1.00
66195;PMS7003;53000;45.182;5.736;2023-09-30T12:11:42;1.50;1.25;0.75
66195;PMS7003;53000;45.182;5.736;2023-09-30T12:14:11;2.25;0.75;0.75
66195;PMS7003;53000;45.182;5.736;2023-09-30T12:16:37;2.00;2.00;1.00
66195;PMS7003;53000;45.182;5.736;2023-09-30T12:19:03;1.25;1.25;0.75
66195;PMS7003;53000;45.182;5.736;2023-09-30T12:21:30;1.25;1.25;1.00
66195;PMS7003;53000;45.182;5.736;2023-09-30T12:23:56;3.25;2.00;1.50
66195;PMS7003;53000;45.182;5.736;2023-09-30T12:26:22;2.25;1.00;1.00
66195;PMS7003;53000;45.182;5.736;2023-09-30T12:28:47;6.00;2.00;1.00
66195;PMS7003;53000;45.182;5.736;2023-09-30T12:31:13;3.25;1.75;1.50
66195;PMS7003;53000;45.182;5.736;2023-09-30T12:33:38;1.00;1.00;0.00
66195;PMS7003;53000;45.182;5.736;2023-09-30T12:36:04;2.00;2.00;1.00
66195;PMS7003;53000;45.182;5.736;2023-09-30T12:38:29;3.75;2.00;1.00
66195;PMS7003;53000;45.182;5.736;2023-09-30T12:40:55;2.75;1.75;1.50
66195;PMS7003;53000;45.182;5.736;2023-09-30T12:43:20;4.00;2.50;1.50
66195;PMS7003;53000;45.182;5.736;2023-09-30T12:45:46;4.25;4.00;2.00
66195;PMS7003;53000;45.182;5.736;2023-09-30T12:48:12;2.75;2.00;1.50
66195;PMS7003;53000;45.182;5.736;2023-09-30T12:50:39;3.25;2.00;1.25
66195;PMS7003;53000;45.182;5.736;2023-09-30T12:53:04;2.25;1.50;1.25
66195;PMS7003;53000;45.182;5.736;2023-09-30T12:55:30;4.00;3.00;1.50
66195;PMS7003;53000;45.182;5.736;2023-09-30T12:57:55;2.50;2.50;2.00
66195;PMS7003;53000;45.182;5.736;2023-09-30T13:00:20;3.00;2.25;1.00
66195;PMS7003;53000;45.182;5.736;2023-09-30T13:02:47;4.75;3.50;2.00
66195;PMS7003;53000;45.182;5.736;2023-09-30T13:05:13;2.50;2.50;1.50
66195;PMS7003;53000;45.182;5.736;2023-09-30T13:07:38;4.25;2.00;1.00
66195;PMS7003;53000;45.182;5.736;2023-09-30T13:10:04;3.00;2.50;1.00
66195;PMS7003;53000;45.182;5.736;2023-09-30T13:12:30;0.50;0.50;0.50
66195;PMS7003;53000;45.182;5.736;2023-09-30T13:14:57;2.00;2.00;2.00
66195;PMS7003;53000;45.182;5.736;2023-09-30T13:17:23;2.50;2.50;2.00
66195;PMS7003;53000;45.182;5.736;2023-09-30T13:19:49;2.00;2.00;1.25
66195;PMS7003;53000;45.182;5.736;2023-09-30T13:22:16;3.00;3.00;2.00
66195;PMS7003;53000;45.182;5.736;2023-09-30T13:24:42;2.00;2.00;1.00
66195;PMS7003;53000;45.182;5.736;2023-09-30T13:27:07;5.50;4.00;2.25
66195;PMS7003;53000;45.182;5.736;2023-09-30T13:29:33;4.50;2.75;1.75
66195;PMS7003;53000;45.182;5.736;2023-09-30T13:31:58;5.00;2.25;1.00
66195;PMS7003;53000;45.182;5.736;2023-09-30T13:34:24;3.50;1.50;0.75
66195;PMS7003;53000;45.182;5.736;2023-09-30T13:36:49;2.00;2.00;2.00
66195;PMS7003;53000;45.182;5.736;2023-09-30T13:39:15;3.50;3.50;2.25
66195;PMS7003;53000;45.182;5.736;2023-09-30T13:41:42;2.25;2.25;2.00
66195;PMS7003;53000;45.182;5.736;2023-09-30T13:44:08;3.50;3.00;2.00
66195;PMS7003;53000;45.182;5.736;2023-09-30T13:46:33;3.75;3.75;3.00
66195;PMS7003;53000;45.182;5.736;2023-09-30T13:48:59;4.00;3.00;1.00
66195;PMS7003;53000;45.182;5.736;2023-09-30T13:51:24;3.00;2.50;2.00
66195;PMS7003;53000;45.182;5.736;2023-09-30T13:53:51;4.50;2.75;2.25
66195;PMS7003;53000;45.182;5.736;2023-09-30T13:56:18;3.00;3.00;2.00
66195;PMS7003;53000;45.182;5.736;2023-09-30T13:58:44;3.00;1.75;1.75
66195;PMS7003;53000;45.182;5.736;2023-09-30T14:01:09;2.50;2.00;1.25
66195;PMS7003;53000;45.182;5.736;2023-09-30T14:03:35;3.00;3.00;1.00
66195;PMS7003;53000;45.182;5.736;2023-09-30T14:06:01;3.00;3.00;1.25
66195;PMS7003;53000;45.182;5.736;2023-09-30T14:08:27;1.75;1.00;1.00
66195;PMS7003;53000;45.182;5.736;2023-09-30T14:10:52;3.00;2.25;2.00
66195;PMS7003;53000;45.182;5.736;2023-09-30T14:13:18;2.50;2.25;1.50
66195;PMS7003;53000;45.182;5.736;2023-09-30T14:15:44;3.00;2.25;2.00
66195;PMS7003;53000;45.182;5.736;2023-09-30T14:18:11;6.00;3.00;2.00
66195;PMS7003;53000;45.182;5.736;2023-09-30T14:20:37;5.50;4.00;2.50
66195;PMS7003;53000;45.182;5.736;2023-09-30T14:23:02;3.75;3.25;2.00
66195;PMS7003;53000;45.182;5.736;2023-09-30T14:25:28;3.00;3.00;2.00
66195;PMS7003;53000;45.182;5.736;2023-09-30T14:27:53;2.00;2.00;1.75
66195;PMS7003;53000;45.182;5.736;2023-09-30T14:30:18;4.25;4.00;2.00
66195;PMS7003;53000;45.182;5.736;2023-09-30T14:32:46;2.50;2.50;1.25
66195;PMS7003;53000;45.182;5.736;2023-09-30T14:35:11;4.50;3.50;2.50
66195;PMS7003;53000;45.182;5.736;2023-09-30T14:37:36;5.50;4.00;3.00
66195;PMS7003;53000;45.182;5.736;2023-09-30T14:40:02;4.50;2.00;2.00